Time;durP1;ratioP1;P1;durP2;ratioP2;P2;SDS_P1;SDS_P2;PMS_P1;PMS_P2;Temp;Humidity;BMP_temperature;BMP_pressure;BME280_temperature;BME280_humidity;BME280_pressure;Samples;Min_cycle;Max_cycle;Signal;HPM_P1;HPM_P2
2021/10/30 00:02:10;;;;;;;9.00;8.03;;;22.40;54.60;;;;;;6208990;23;20178;-76
2021/10/30 00:04:36;;;;;;;9.33;7.23;;;22.40;54.60;;;;;;6210044;23;20375;-76
2021/10/30 00:07:01;;;;;;;9.27;8.20;;;22.40;54.60;;;;;;6183729;23;20186;-76
2021/10/30 00:09:27;;;;;;;8.33;7.23;;;22.40;54.60;;;;;;6184262;23;20140;-77
2021/10/30 00:11:53;;;;;;;10.00;7.50;;;22.40;54.60;;;;;;6184142;23;20163;-76
2021/10/30 00:14:19;;;;;;;10.60;7.83;;;22.40;54.70;;;;;;6208375;23;20155;-76
2021/10/30 00:17:13;;;;;;;8.93;7.80;;;22.40;54.70;;;;;;6208355;23;20179;-76
2021/10/30 00:19:39;;;;;;;8.43;7.53;;;22.40;54.60;;;;;;6208355;23;20136;-76
2021/10/30 00:22:09;;;;;;;9.27;7.63;;;22.40;54.70;;;;;;6208620;23;20397;-76
2021/10/30 00:24:35;;;;;;;9.20;7.60;;;22.40;55.30;;;;;;6208732;23;20148;-76
2021/10/30 00:27:04;;;;;;;8.17;6.60;;;22.40;54.70;;;;;;6210580;23;20355;-75
2021/10/30 00:29:30;;;;;;;8.60;7.70;;;22.40;54.70;;;;;;6210404;23;20351;-75
2021/10/30 00:31:56;;;;;;;8.53;7.50;;;22.40;54.70;;;;;;6208681;23;20383;-75
2021/10/30 00:34:23;;;;;;;8.47;7.20;;;22.40;54.70;;;;;;6208207;23;20387;-75
2021/10/30 00:36:50;;;;;;;10.17;7.37;;;22.40;54.70;;;;;;6209721;23;20407;-76
2021/10/30 00:39:16;;;;;;;8.53;7.03;;;22.40;54.70;;;;;;6209062;23;20375;-75
2021/10/30 00:41:46;;;;;;;8.50;7.40;;;22.40;54.70;;;;;;6209566;23;20364;-77
2021/10/30 00:44:12;;;;;;;8.30;7.50;;;22.40;54.70;;;;;;6208747;23;20175;-77
2021/10/30 00:46:45;;;;;;;8.90;8.00;;;22.40;54.70;;;;;;6209947;23;20387;-77
2021/10/30 00:52:34;;;;;;;10.40;7.07;;;22.40;54.70;;;;;;6209016;23;20407;-77
2021/10/30 00:55:01;;;;;;;6.63;5.93;;;22.30;54.70;;;;;;6183281;23;20410;-77
2021/10/30 00:57:28;;;;;;;8.67;7.20;;;22.40;54.80;;;;;;6183534;23;20422;-77
2021/10/30 00:59:55;;;;;;;8.10;7.30;;;22.30;54.70;;;;;;6208601;23;20447;-76
2021/10/30 01:02:22;;;;;;;8.10;7.30;;;22.30;54.70;;;;;;6208498;23;20450;-76
2021/10/30 01:04:48;;;;;;;8.63;7.83;;;22.30;54.70;;;;;;6209388;23;20415;-76
2021/10/30 01:07:14;;;;;;;7.33;6.67;;;22.30;54.70;;;;;;6208238;23;20387;-77
2021/10/30 01:09:40;;;;;;;8.50;7.70;;;22.40;54.80;;;;;;6183148;23;20390;-77
2021/10/30 01:12:08;;;;;;;8.97;6.80;;;22.30;54.70;;;;;;6208143;23;20426;-77
2021/10/30 01:14:34;;;;;;;7.50;6.77;;;22.30;54.70;;;;;;6209537;23;20148;-77
2021/10/30 01:17:07;;;;;;;8.50;7.33;;;22.30;54.70;;;;;;6208011;23;20482;-77
2021/10/30 01:19:33;;;;;;;8.03;7.23;;;22.40;54.80;;;;;;6208623;23;20387;-77
2021/10/30 01:22:00;;;;;;;9.27;7.70;;;22.30;54.70;;;;;;6208656;23;20398;-77
2021/10/30 01:24:26;;;;;;;8.73;7.20;;;22.30;54.70;;;;;;6207975;23;20375;-77
2021/10/30 01:26:53;;;;;;;7.67;6.90;;;22.30;54.70;;;;;;6208289;23;20386;-77
2021/10/30 01:29:19;;;;;;;6.87;6.27;;;22.30;54.70;;;;;;6208981;23;20223;-76
2021/10/30 01:31:45;;;;;;;8.50;6.90;;;22.30;54.70;;;;;;6208982;23;20406;-77
2021/10/30 01:34:11;;;;;;;8.03;7.07;;;22.30;54.70;;;;;;6184545;23;20415;-76
2021/10/30 01:36:38;;;;;;;8.63;7.40;;;22.30;54.70;;;;;;6210652;23;20159;-76
2021/10/30 01:39:08;;;;;;;8.97;7.20;;;22.30;54.70;;;;;;6208109;23;20163;-77
2021/10/30 01:41:35;;;;;;;8.47;7.20;;;22.30;54.70;;;;;;6210317;23;20380;-76
2021/10/30 01:44:02;;;;;;;8.03;7.07;;;22.30;54.70;;;;;;6184496;23;20414;-76
2021/10/30 01:46:28;;;;;;;7.83;6.67;;;22.30;54.70;;;;;;6208868;23;20466;-76
2021/10/30 01:48:53;;;;;;;8.47;7.20;;;22.30;54.70;;;;;;6208324;23;20386;-76
2021/10/30 01:51:21;;;;;;;9.20;7.23;;;22.30;54.70;;;;;;6184649;23;20163;-77
2021/10/30 01:53:47;;;;;;;7.97;7.17;;;22.30;54.70;;;;;;6183895;23;20159;-76
2021/10/30 01:56:14;;;;;;;8.63;7.13;;;22.30;54.70;;;;;;6209100;23;20402;-77
2021/10/30 01:58:39;;;;;;;8.37;6.90;;;22.30;54.70;;;;;;6209007;23;20414;-76
2021/10/30 02:01:07;;;;;;;8.00;6.40;;;22.30;54.70;;;;;;6208298;23;20419;-76
2021/10/30 02:03:33;;;;;;;7.13;6.43;;;22.30;54.80;;;;;;6208232;23;20148;-77
2021/10/30 02:06:00;;;;;;;7.90;7.10;;;22.30;54.80;;;;;;6208105;23;20387;-77
2021/10/30 02:08:26;;;;;;;8.03;7.30;;;22.30;54.80;;;;;;6183550;23;20375;-77
2021/10/30 02:10:52;;;;;;;7.60;6.90;;;22.30;54.80;;;;;;6208123;23;20371;-77
2021/10/30 02:13:22;;;;;;;7.67;6.60;;;22.30;54.80;;;;;;6209067;23;20419;-76
2021/10/30 02:15:48;;;;;;;6.70;5.97;;;22.30;54.80;;;;;;6207500;23;20454;-77
2021/10/30 02:18:14;;;;;;;7.23;6.17;;;22.30;54.80;;;;;;6207411;23;20427;-77
2021/10/30 02:20:40;;;;;;;8.70;7.43;;;22.20;54.80;;;;;;6207445;23;20449;-76
2021/10/30 02:23:07;;;;;;;8.40;7.03;;;22.20;54.80;;;;;;6207864;23;20398;-77
2021/10/30 02:25:32;;;;;;;7.43;6.40;;;22.20;54.80;;;;;;6207463;23;20422;-77
2021/10/30 02:27:59;;;;;;;7.13;6.30;;;22.20;54.80;;;;;;6182451;23;20394;-76
2021/10/30 02:30:25;;;;;;;7.27;6.57;;;22.20;54.80;;;;;;6208455;23;20152;-77
2021/10/30 02:32:51;;;;;;;8.00;6.73;;;22.20;54.80;;;;;;6208462;23;20378;-77
2021/10/30 02:35:18;;;;;;;8.10;6.07;;;22.20;54.80;;;;;;6207672;23;20383;-76
2021/10/30 02:37:43;;;;;;;8.80;6.57;;;22.20;54.80;;;;;;6206305;23;20494;-76
2021/10/30 02:40:10;;;;;;;7.20;6.40;;;22.20;54.80;;;;;;6208538;23;20335;-77
2021/10/30 02:42:36;;;;;;;7.27;6.23;;;22.20;54.90;;;;;;6208307;23;20144;-77
2021/10/30 02:45:04;;;;;;;6.50;5.90;;;22.20;54.90;;;;;;6182572;23;20371;-77
2021/10/30 02:47:30;;;;;;;6.97;6.27;;;22.20;54.90;;;;;;6206305;23;20389;-77
2021/10/30 02:49:56;;;;;;;7.87;6.33;;;22.20;55.00;;;;;;6206658;23;20849;-77
2021/10/30 02:52:22;;;;;;;7.50;6.80;;;22.10;54.90;;;;;;6208641;23;20203;-77
2021/10/30 02:54:48;;;;;;;6.63;5.97;;;22.10;54.90;;;;;;6183583;23;20397;-77
2021/10/30 02:57:18;;;;;;;7.77;5.90;;;22.10;54.90;;;;;;6208117;23;20415;-77
2021/10/30 02:59:44;;;;;;;6.63;6.03;;;22.10;54.90;;;;;;6207466;23;20371;-76
2021/10/30 03:02:10;;;;;;;7.77;6.60;;;22.10;54.90;;;;;;6207919;23;20363;-76
2021/10/30 03:04:54;;;;;;;7.10;5.80;;;22.10;54.90;;;;;;6182156;23;20379;-76
2021/10/30 03:07:22;;;;;;;7.40;6.70;;;22.10;54.90;;;;;;6182828;23;20148;-76
2021/10/30 03:09:50;;;;;;;6.27;5.63;;;22.10;54.90;;;;;;6207458;23;20394;-77
2021/10/30 03:12:17;;;;;;;6.07;5.47;;;22.10;54.90;;;;;;6208674;23;20371;-76
2021/10/30 03:14:43;;;;;;;7.10;6.40;;;22.10;54.90;;;;;;6207258;23;20387;-76
2021/10/30 03:17:09;;;;;;;8.33;6.40;;;22.10;54.90;;;;;;6207363;23;20406;-77
2021/10/30 03:19:35;;;;;;;6.50;5.60;;;22.10;54.90;;;;;;6207127;23;20386;-76
2021/10/30 03:22:00;;;;;;;6.23;5.67;;;22.10;55.50;;;;;;6207270;23;20231;-76
2021/10/30 03:24:26;;;;;;;6.50;5.90;;;22.10;54.90;;;;;;6208637;23;20148;-78
2021/10/30 03:26:52;;;;;;;6.33;5.73;;;22.10;54.90;;;;;;6182843;23;20488;-77
2021/10/30 03:30:05;;;;;;;6.97;6.27;;;22.10;54.90;;;;;;6206958;23;20215;-77
2021/10/30 03:32:32;;;;;;;7.03;5.70;;;22.10;54.90;;;;;;6208785;23;20122;-76
2021/10/30 03:34:58;;;;;;;6.80;6.10;;;22.10;55.00;;;;;;6209156;23;20373;-77
2021/10/30 03:37:25;;;;;;;7.60;5.70;;;22.10;55.00;;;;;;6207711;23;20411;-77
2021/10/30 03:39:52;;;;;;;6.70;5.83;;;22.10;55.00;;;;;;6208709;23;20407;-76
2021/10/30 03:42:19;;;;;;;7.10;6.40;;;22.10;54.90;;;;;;6209460;23;20379;-77
2021/10/30 03:44:45;;;;;;;7.00;6.40;;;22.10;54.90;;;;;;6207872;23;20436;-76
2021/10/30 03:47:11;;;;;;;7.20;6.50;;;22.10;55.00;;;;;;6210186;23;20382;-77
2021/10/30 03:49:37;;;;;;;6.00;5.47;;;22.10;55.00;;;;;;6210423;23;20387;-76
2021/10/30 03:52:03;;;;;;;6.60;6.00;;;22.10;54.90;;;;;;6210521;23;20152;-77
2021/10/30 03:54:29;;;;;;;5.80;5.03;;;22.10;55.00;;;;;;6211838;23;20846;-77
2021/10/30 03:56:55;;;;;;;6.70;6.00;;;22.10;54.90;;;;;;6210664;23;20429;-76
2021/10/30 03:59:21;;;;;;;5.97;5.37;;;22.10;55.00;;;;;;6210155;23;20175;-76
2021/10/30 04:01:47;;;;;;;6.60;5.80;;;22.10;55.00;;;;;;6209763;23;20414;-76
2021/10/30 04:07:35;;;;;;;6.00;5.50;;;22.10;54.90;;;;;;6210259;23;20350;-77
2021/10/30 04:10:02;;;;;;;6.93;5.97;;;22.00;54.90;;;;;;6183683;23;20379;-77
2021/10/30 04:12:27;;;;;;;6.80;6.10;;;22.10;55.00;;;;;;6184469;23;20426;-76
2021/10/30 04:14:53;;;;;;;6.97;5.77;;;22.10;55.00;;;;;;6208419;23;20410;-77
2021/10/30 04:17:19;;;;;;;6.13;5.53;;;22.10;55.00;;;;;;6210067;23;20284;-76
2021/10/30 04:19:45;;;;;;;6.87;6.17;;;22.10;55.00;;;;;;6184333;23;20135;-77
2021/10/30 04:22:10;;;;;;;6.07;5.47;;;22.10;55.00;;;;;;6183493;23;20390;-77
2021/10/30 04:25:10;;;;;;;5.93;5.43;;;22.10;54.90;;;;;;6208628;23;20207;-77
2021/10/30 04:27:35;;;;;;;5.23;4.73;;;22.10;54.90;;;;;;6209802;23;20211;-78
2021/10/30 04:30:01;;;;;;;6.60;6.00;;;22.10;54.90;;;;;;6183079;23;20376;-77
2021/10/30 04:32:27;;;;;;;6.03;4.70;;;22.10;54.90;;;;;;6208507;23;20162;-77
2021/10/30 04:35:02;;;;;;;5.57;5.03;;;22.10;54.90;;;;;;6208640;23;20375;-77
2021/10/30 04:37:28;;;;;;;5.63;5.00;;;22.20;54.90;;;;;;6207971;23;20442;-76
2021/10/30 04:39:54;;;;;;;6.40;5.80;;;22.10;54.80;;;;;;6183534;23;20363;-77
2021/10/30 04:42:20;;;;;;;7.60;6.30;;;22.10;54.80;;;;;;6208259;23;20136;-77
2021/10/30 04:44:47;;;;;;;6.63;5.57;;;22.10;54.80;;;;;;6208400;23;20160;-76
2021/10/30 04:47:17;;;;;;;5.57;4.93;;;22.20;54.80;;;;;;6208824;23;20470;-76
2021/10/30 04:49:45;;;;;;;5.50;5.00;;;22.20;54.80;;;;;;6210075;23;20398;-76
2021/10/30 04:52:11;;;;;;;6.60;6.00;;;22.20;54.70;;;;;;6210042;23;20431;-76
2021/10/30 04:54:46;;;;;;;6.33;5.60;;;22.20;54.70;;;;;;6209687;23;20379;-79
2021/10/30 04:57:15;;;;;;;6.17;5.57;;;22.20;54.70;;;;;;6209876;23;20422;-76
2021/10/30 04:59:41;;;;;;;5.43;4.87;;;22.20;54.60;;;;;;6208181;23;20359;-76
2021/10/30 05:02:07;;;;;;;5.67;5.07;;;22.20;54.60;;;;;;6208570;23;20730;-76
2021/10/30 05:04:32;;;;;;;5.80;5.30;;;22.20;54.60;;;;;;6209677;23;20135;-76
2021/10/30 05:07:01;;;;;;;6.30;5.63;;;22.20;54.60;;;;;;6207820;23;20175;-76
2021/10/30 05:09:26;;;;;;;6.20;5.60;;;22.30;54.60;;;;;;6208626;23;20179;-77
2021/10/30 05:11:55;;;;;;;6.00;5.40;;;22.30;54.60;;;;;;6209153;23;20403;-76
2021/10/30 05:14:21;;;;;;;5.90;5.27;;;22.30;54.60;;;;;;6209780;23;20160;-77
2021/10/30 05:16:48;;;;;;;5.97;5.47;;;22.30;54.60;;;;;;6208066;23;20410;-77
2021/10/30 05:19:14;;;;;;;5.93;5.30;;;22.30;54.50;;;;;;6209237;23;20169;-77
2021/10/30 05:21:40;;;;;;;7.50;6.20;;;22.30;54.50;;;;;;6209120;23;20435;-76
2021/10/30 05:24:06;;;;;;;6.40;5.77;;;22.30;54.40;;;;;;6208447;23;20389;-76
2021/10/30 05:26:32;;;;;;;6.20;5.60;;;22.30;54.40;;;;;;6209111;23;20156;-76
2021/10/30 05:29:01;;;;;;;5.77;5.20;;;22.30;54.40;;;;;;6208586;23;20156;-76
2021/10/30 05:31:26;;;;;;;6.20;5.00;;;22.30;54.40;;;;;;6209147;23;20375;-76
2021/10/30 05:33:52;;;;;;;6.60;5.67;;;22.30;54.40;;;;;;6183247;23;20391;-76
2021/10/30 05:36:20;;;;;;;5.70;5.20;;;22.30;54.40;;;;;;6209491;23;20159;-77
2021/10/30 05:38:50;;;;;;;5.07;4.57;;;22.30;54.40;;;;;;6208627;23;20194;-77
2021/10/30 05:41:17;;;;;;;6.57;5.50;;;22.30;54.40;;;;;;6207996;23;20401;-77
2021/10/30 05:43:43;;;;;;;5.53;5.03;;;22.30;54.40;;;;;;6209089;23;20383;-76
2021/10/30 05:46:09;;;;;;;5.50;5.00;;;22.30;54.40;;;;;;6209391;23;20419;-77
2021/10/30 05:48:36;;;;;;;5.50;5.00;;;22.30;54.40;;;;;;6208202;23;20151;-77
2021/10/30 05:51:02;;;;;;;6.57;5.87;;;22.30;54.40;;;;;;6207805;23;20206;-78
2021/10/30 05:53:28;;;;;;;5.43;4.93;;;22.30;54.40;;;;;;6207297;23;20378;-77
2021/10/30 05:55:53;;;;;;;4.80;4.30;;;22.30;54.40;;;;;;6207331;23;20870;-77
2021/10/30 05:58:19;;;;;;;5.30;4.80;;;22.30;54.40;;;;;;6206862;23;20199;-77
2021/10/30 06:00:45;;;;;;;6.03;5.43;;;22.30;54.40;;;;;;6207200;23;20151;-76
2021/10/30 06:03:11;;;;;;;5.73;4.80;;;22.30;54.40;;;;;;6208246;23;20419;-77
2021/10/30 06:05:37;;;;;;;5.60;5.10;;;22.30;54.30;;;;;;6207775;23;20383;-77
2021/10/30 06:08:05;;;;;;;6.80;6.10;;;22.30;54.30;;;;;;6183286;23;20160;-77
2021/10/30 06:10:35;;;;;;;5.53;4.97;;;22.30;54.30;;;;;;6207463;23;20148;-77
2021/10/30 06:13:00;;;;;;;5.37;4.87;;;22.30;54.40;;;;;;6207061;23;20387;-77
2021/10/30 06:15:27;;;;;;;6.00;5.40;;;22.30;54.40;;;;;;6182695;23;20398;-76
2021/10/30 06:17:53;;;;;;;5.90;4.37;;;22.30;54.40;;;;;;6208554;23;20171;-77
2021/10/30 06:20:19;;;;;;;4.70;4.27;;;22.30;54.40;;;;;;6182547;23;20390;-76
2021/10/30 06:22:45;;;;;;;5.10;4.70;;;22.30;54.30;;;;;;6207136;23;20151;-76
2021/10/30 06:25:12;;;;;;;4.50;4.10;;;22.30;54.30;;;;;;6206722;23;20387;-76
2021/10/30 06:27:42;;;;;;;5.43;4.90;;;22.30;54.30;;;;;;6208627;23;20148;-76
2021/10/30 06:30:47;;;;;;;5.17;4.10;;;22.30;54.30;;;;;;6208253;23;20379;-75
2021/10/30 06:33:12;;;;;;;4.70;4.27;;;22.40;54.40;;;;;;6208069;23;20347;-77
2021/10/30 06:35:38;;;;;;;5.13;4.63;;;22.30;54.40;;;;;;6207181;23;20383;-77
2021/10/30 06:38:04;;;;;;;5.37;4.60;;;22.30;54.40;;;;;;6208634;23;20164;-76
2021/10/30 06:40:30;;;;;;;5.27;4.77;;;22.30;54.40;;;;;;6206627;23;20171;-77
2021/10/30 06:43:40;;;;;;;5.67;4.70;;;22.30;54.40;;;;;;6208226;23;20391;-77
2021/10/30 06:46:06;;;;;;;4.97;4.50;;;22.30;54.30;;;;;;6208504;23;20371;-76
2021/10/30 06:48:33;;;;;;;5.20;4.40;;;22.30;54.40;;;;;;6208533;23;20369;-79
2021/10/30 06:50:59;;;;;;;4.87;4.37;;;22.30;54.40;;;;;;6210113;23;20399;-80
2021/10/30 06:53:25;;;;;;;5.43;4.93;;;22.30;54.40;;;;;;6210356;23;20375;-79
2021/10/30 06:55:54;;;;;;;5.03;4.20;;;22.40;54.50;;;;;;6211522;23;20383;-79
2021/10/30 06:58:29;;;;;;;4.60;4.10;;;22.40;54.50;;;;;;6210282;23;20441;-79
2021/10/30 07:00:57;;;;;;;5.00;4.23;;;22.30;54.50;;;;;;6211292;23;20363;-79
2021/10/30 07:03:23;;;;;;;5.63;4.97;;;22.30;54.50;;;;;;6210810;23;20387;-79
2021/10/30 07:05:52;;;;;;;7.53;6.73;;;22.30;54.50;;;;;;6209755;23;20432;-78
2021/10/30 07:08:18;;;;;;;6.30;5.70;;;22.30;54.20;;;;;;6185656;23;20379;-78
2021/10/30 07:10:44;;;;;;;6.17;5.57;;;22.20;53.90;;;;;;6211176;23;20374;-79
2021/10/30 07:13:12;;;;;;;5.20;4.80;;;22.30;54.10;;;;;;6211687;23;20147;-79
2021/10/30 07:15:39;;;;;;;5.80;5.10;;;22.20;54.00;;;;;;6210704;23;20224;-79
2021/10/30 07:18:10;;;;;;;6.00;5.40;;;22.30;54.20;;;;;;6185079;23;20415;-79
2021/10/30 07:20:35;;;;;;;4.80;4.30;;;22.20;54.20;;;;;;6210705;23;20399;-80
2021/10/30 07:23:06;;;;;;;5.50;5.00;;;22.20;54.20;;;;;;6211685;23;20386;-80
2021/10/30 07:25:42;;;;;;;5.03;4.63;;;22.20;54.30;;;;;;6188111;23;20154;-79
2021/10/30 07:28:11;;;;;;;4.63;4.10;;;22.20;54.30;;;;;;6211534;23;20365;-78
2021/10/30 07:30:37;;;;;;;4.90;4.50;;;22.20;54.40;;;;;;6187705;23;20466;-78
2021/10/30 07:33:03;;;;;;;5.63;5.03;;;22.20;54.40;;;;;;6211857;23;20372;-79
2021/10/30 07:35:29;;;;;;;4.60;4.10;;;22.30;54.40;;;;;;6211178;23;20152;-79
2021/10/30 07:38:00;;;;;;;5.10;4.60;;;22.30;54.30;;;;;;6212838;23;20431;-78
2021/10/30 07:40:29;;;;;;;4.27;3.87;;;22.30;54.30;;;;;;6211752;23;20706;-77
2021/10/30 07:42:56;;;;;;;4.83;4.43;;;22.40;54.30;;;;;;6211999;23;20375;-78
2021/10/30 07:45:22;;;;;;;5.13;4.30;;;22.40;54.30;;;;;;6185848;23;20359;-78
2021/10/30 07:48:15;;;;;;;5.30;4.80;;;22.40;54.20;;;;;;6212860;23;20359;-77
2021/10/30 07:50:46;;;;;;;8.20;4.57;;;22.50;54.30;;;;;;6212047;23;20378;-78
2021/10/30 07:53:12;;;;;;;4.90;4.40;;;22.40;54.20;;;;;;6211651;23;20420;-78
2021/10/30 07:55:38;;;;;;;4.83;4.40;;;22.50;54.30;;;;;;6212996;23;20377;-78
2021/10/30 07:58:04;;;;;;;5.43;4.60;;;22.50;54.20;;;;;;6212859;23;20877;-77
2021/10/30 08:00:32;;;;;;;5.60;5.10;;;22.50;54.20;;;;;;6211053;23;20410;-79
2021/10/30 08:02:58;;;;;;;5.37;4.63;;;22.50;54.20;;;;;;6212474;23;20383;-77
2021/10/30 08:05:24;;;;;;;5.43;4.83;;;22.50;54.20;;;;;;6213667;23;20367;-78
2021/10/30 08:07:50;;;;;;;4.60;4.20;;;22.50;54.20;;;;;;6211869;23;20162;-79
2021/10/30 08:10:19;;;;;;;5.47;4.37;;;22.50;54.20;;;;;;6212780;23;20411;-78
2021/10/30 08:12:45;;;;;;;6.43;4.93;;;22.60;54.20;;;;;;6211729;23;20355;-77
2021/10/30 08:15:15;;;;;;;4.93;4.43;;;22.60;54.20;;;;;;6213270;23;20394;-77
2021/10/30 08:17:41;;;;;;;4.00;3.60;;;22.60;54.20;;;;;;6213501;23;20193;-77
2021/10/30 08:20:07;;;;;;;5.20;4.70;;;22.60;54.20;;;;;;6213000;23;20363;-78
2021/10/30 08:22:33;;;;;;;7.00;4.23;;;22.60;54.20;;;;;;6212040;23;20136;-78
2021/10/30 08:25:11;;;;;;;8.63;5.27;;;22.60;54.20;;;;;;6213519;23;20358;-77
2021/10/30 08:27:37;;;;;;;7.07;5.20;;;22.60;54.20;;;;;;6211942;23;20132;-77
2021/10/30 08:30:05;;;;;;;5.30;4.47;;;22.60;54.20;;;;;;6186314;23;20379;-77
2021/10/30 08:32:33;;;;;;;4.77;4.37;;;22.60;54.20;;;;;;6212940;23;20367;-77
2021/10/30 08:35:01;;;;;;;6.83;4.50;;;22.60;54.20;;;;;;6211185;23;20391;-77
2021/10/30 08:37:35;;;;;;;4.80;3.80;;;22.60;54.20;;;;;;6186526;23;20435;-78
2021/10/30 08:40:01;;;;;;;5.07;3.90;;;22.60;54.20;;;;;;6212535;23;20367;-78
2021/10/30 08:42:27;;;;;;;5.53;3.70;;;22.60;54.20;;;;;;6211190;23;20387;-78
2021/10/30 08:44:54;;;;;;;5.93;5.43;;;22.60;54.20;;;;;;6211783;23;20175;-77
2021/10/30 08:47:26;;;;;;;4.97;4.30;;;22.70;54.30;;;;;;6211625;23;20160;-77
2021/10/30 08:49:55;;;;;;;5.17;4.67;;;22.70;54.30;;;;;;6212168;23;20347;-77
2021/10/30 08:52:23;;;;;;;4.30;3.90;;;22.70;54.20;;;;;;6186614;23;20367;-77
2021/10/30 08:55:06;;;;;;;4.37;3.93;;;22.70;54.30;;;;;;6211756;23;20366;-77
2021/10/30 08:57:35;;;;;;;5.70;4.00;;;22.70;54.20;;;;;;6212873;23;20407;-77
2021/10/30 09:00:25;;;;;;;5.03;4.03;;;22.70;54.30;;;;;;6213077;23;20367;-78
2021/10/30 09:03:02;;;;;;;4.40;4.00;;;22.70;54.20;;;;;;6212163;23;20351;-78
2021/10/30 09:05:42;;;;;;;4.70;4.20;;;22.70;54.30;;;;;;6211799;23;20394;-78
2021/10/30 09:08:13;;;;;;;4.77;4.37;;;22.70;54.30;;;;;;6187136;23;20708;-78
2021/10/30 09:11:08;;;;;;;5.47;4.30;;;22.70;54.30;;;;;;6212066;23;20360;-78
2021/10/30 09:14:05;;;;;;;;;;;;;;;;;;;;;
2021/10/30 09:16:37;;;;;;;5.07;4.57;;;22.70;54.30;;;;;;6211867;23;20407;-78
2021/10/30 09:19:27;;;;;;;4.40;4.00;;;22.70;54.30;;;;;;6212414;23;20398;-79
2021/10/30 09:22:05;;;;;;;5.33;4.43;;;22.70;54.30;;;;;;6186828;23;20435;-79
2021/10/30 09:24:50;;;;;;;6.00;4.27;;;22.70;54.30;;;;;;6211558;23;20376;-78
2021/10/30 09:27:15;;;;;;;5.37;4.50;;;22.70;54.30;;;;;;6212550;23;20390;-78
2021/10/30 09:30:14;;;;;;;5.10;3.70;;;22.70;54.30;;;;;;6211048;23;20363;-78
2021/10/30 09:32:52;;;;;;;5.47;3.93;;;22.70;54.30;;;;;;6211625;23;20152;-78
2021/10/30 09:35:30;;;;;;;5.97;4.63;;;22.70;54.30;;;;;;6212243;23;20343;-78
2021/10/30 09:38:18;;;;;;;5.77;4.63;;;22.70;54.30;;;;;;6210874;23;20430;-77
2021/10/30 09:40:47;;;;;;;4.40;3.80;;;22.70;54.30;;;;;;6209921;23;20375;-78
2021/10/30 09:43:21;;;;;;;3.93;3.53;;;22.70;54.30;;;;;;6211503;23;20415;-79
2021/10/30 09:46:01;;;;;;;4.30;3.90;;;22.80;54.40;;;;;;6212298;23;20378;-79
2021/10/30 09:48:43;;;;;;;4.97;4.47;;;22.80;54.30;;;;;;6186974;23;20836;-79
2021/10/30 09:51:08;;;;;;;4.03;3.40;;;22.80;54.30;;;;;;6211217;23;20383;-78
2021/10/30 09:53:39;;;;;;;4.53;3.50;;;22.80;54.40;;;;;;6212708;23;20359;-79
2021/10/30 09:56:12;;;;;;;4.17;3.80;;;22.80;54.40;;;;;;6211119;23;20149;-78
2021/10/30 09:58:49;;;;;;;3.97;3.67;;;22.80;54.30;;;;;;6211281;23;20394;-78
2021/10/30 10:01:20;;;;;;;6.00;4.40;;;22.80;54.40;;;;;;6212103;23;20375;-79
2021/10/30 10:03:59;;;;;;;4.77;4.10;;;22.80;54.30;;;;;;6212288;23;20371;-79
2021/10/30 10:06:25;;;;;;;6.00;4.10;;;22.80;54.30;;;;;;6212808;23;20439;-79
2021/10/30 10:12:16;;;;;;;4.33;3.93;;;22.80;54.30;;;;;;6213670;23;20339;-80
2021/10/30 10:14:50;;;;;;;4.47;3.73;;;22.70;54.30;;;;;;6213243;23;20352;-79
2021/10/30 10:17:19;;;;;;;4.70;4.07;;;22.80;54.40;;;;;;6210780;23;20434;-80
2021/10/30 10:19:46;;;;;;;4.40;4.00;;;22.80;54.40;;;;;;6187493;23;20391;-80
2021/10/30 10:28:33;;;;;;;3.63;3.17;;;22.80;54.40;;;;;;6152615;23;20466;-80
2021/10/30 10:31:22;;;;;;;3.97;3.60;;;22.80;54.40;;;;;;6128172;23;20372;-80
2021/10/30 10:34:08;;;;;;;5.40;4.10;;;22.80;54.40;;;;;;6152446;23;20377;-79
2021/10/30 10:36:37;;;;;;;4.20;3.80;;;22.80;54.40;;;;;;6152353;23;20495;-80
2021/10/30 10:42:46;;;;;;;3.70;3.40;;;22.80;54.40;;;;;;6152850;23;20328;-80
2021/10/30 10:45:16;;;;;;;5.37;3.40;;;22.70;54.40;;;;;;6152111;23;20402;-80
2021/10/30 10:47:44;;;;;;;3.80;3.40;;;22.80;54.50;;;;;;6127696;23;20473;-80
2021/10/30 10:50:21;;;;;;;5.10;4.03;;;22.70;54.40;;;;;;6152087;23;20368;-80
2021/10/30 10:53:07;;;;;;;3.73;3.40;;;22.70;54.90;;;;;;6152362;23;20376;-80
2021/10/30 10:55:34;;;;;;;3.80;3.43;;;22.80;54.40;;;;;;6179809;23;20757;-80
2021/10/30 10:58:09;;;;;;;3.97;3.57;;;22.80;54.40;;;;;;6212997;23;20449;-80
2021/10/30 11:00:36;;;;;;;3.10;2.80;;;22.80;54.40;;;;;;6189626;23;20470;-80
2021/10/30 11:03:02;;;;;;;4.27;3.53;;;22.80;54.40;;;;;;6214174;23;20402;-80
2021/10/30 11:05:48;;;;;;;3.80;3.27;;;22.80;55.00;;;;;;6213961;23;20386;-80
2021/10/30 11:08:30;;;;;;;4.77;4.20;;;22.80;54.30;;;;;;6210536;23;20364;-80
2021/10/30 11:11:24;;;;;;;4.37;3.50;;;22.80;54.40;;;;;;6213597;23;20367;-79
2021/10/30 11:13:54;;;;;;;4.53;3.13;;;22.80;54.40;;;;;;6214599;23;20443;-79
2021/10/30 11:16:53;;;;;;;4.10;3.70;;;22.80;54.40;;;;;;6213612;23;20367;-79
2021/10/30 11:19:37;;;;;;;3.20;2.90;;;22.80;54.30;;;;;;6169343;23;20467;-80
2021/10/30 11:22:15;;;;;;;4.00;3.60;;;22.80;54.40;;;;;;6207621;23;20371;-80
2021/10/30 11:24:56;;;;;;;4.10;3.60;;;22.80;54.40;;;;;;6208178;23;20426;-80
2021/10/30 11:27:22;;;;;;;3.70;3.40;;;22.80;54.40;;;;;;6210103;23;20363;-80
2021/10/30 11:29:54;;;;;;;6.63;3.57;;;22.80;54.40;;;;;;6183588;23;20451;-80
2021/10/30 11:32:23;;;;;;;6.07;3.83;;;22.80;54.40;;;;;;6208293;23;20546;-79
2021/10/30 11:35:00;;;;;;;3.60;3.03;;;22.90;54.40;;;;;;6182895;23;20389;-79
2021/10/30 11:37:28;;;;;;;3.77;3.33;;;22.90;54.40;;;;;;6207660;23;20422;-80
2021/10/30 11:40:03;;;;;;;3.80;3.23;;;22.80;54.30;;;;;;6208610;23;20387;-79
2021/10/30 11:42:31;;;;;;;3.60;3.30;;;22.80;54.40;;;;;;6207561;23;20386;-80
2021/10/30 11:44:59;;;;;;;4.83;3.80;;;22.90;54.40;;;;;;6206766;23;20387;-79
2021/10/30 11:47:26;;;;;;;3.37;3.07;;;22.80;54.30;;;;;;6207562;23;20383;-80
2021/10/30 11:50:20;;;;;;;4.13;3.40;;;22.80;54.40;;;;;;6209242;23;20355;-80
2021/10/30 11:52:50;;;;;;;3.90;3.53;;;22.80;54.40;;;;;;6208593;23;20411;-78
2021/10/30 11:55:20;;;;;;;3.83;3.20;;;22.80;54.40;;;;;;6208990;23;20375;-78
2021/10/30 11:57:46;;;;;;;4.07;3.67;;;22.80;54.40;;;;;;6207829;23;20415;-78
2021/10/30 12:00:13;;;;;;;3.80;3.23;;;22.80;54.40;;;;;;6208178;23;20470;-79
2021/10/30 12:02:38;;;;;;;3.90;3.20;;;22.80;54.40;;;;;;6208587;23;20199;-78
2021/10/30 12:08:27;;;;;;;4.23;3.17;;;22.90;54.40;;;;;;6207588;23;20144;-80
2021/10/30 12:10:52;;;;;;;3.60;3.30;;;22.80;54.40;;;;;;6180696;23;20409;-79
2021/10/30 12:13:19;;;;;;;3.80;3.50;;;22.80;54.40;;;;;;6205627;23;20152;-79
2021/10/30 12:15:46;;;;;;;3.30;3.00;;;22.80;54.50;;;;;;6179811;23;20178;-79
2021/10/30 12:18:15;;;;;;;3.70;3.00;;;22.80;54.40;;;;;;6205726;23;20456;-78
2021/10/30 12:24:27;;;;;;;3.80;3.50;;;22.90;54.50;;;;;;6206843;23;20351;-79
2021/10/30 12:26:59;;;;;;;4.50;3.60;;;22.80;54.40;;;;;;6206143;23;20371;-79
2021/10/30 12:29:30;;;;;;;3.20;2.87;;;22.80;54.50;;;;;;6206496;23;20359;-79
2021/10/30 12:32:07;;;;;;;3.80;3.47;;;22.80;54.50;;;;;;6205408;23;20386;-79
2021/10/30 12:34:35;;;;;;;3.97;3.20;;;22.80;54.50;;;;;;6207019;23;20381;-79
2021/10/30 12:37:11;;;;;;;3.53;3.23;;;22.80;54.50;;;;;;6204749;23;20419;-79
2021/10/30 12:39:41;;;;;;;4.40;3.63;;;22.80;54.50;;;;;;6205254;23;20406;-79
2021/10/30 12:42:09;;;;;;;4.53;3.80;;;22.80;54.50;;;;;;6204731;23;20406;-79
2021/10/30 12:44:42;;;;;;;6.43;4.60;;;22.80;54.50;;;;;;6206667;23;20443;-79
2021/10/30 12:47:17;;;;;;;10.00;6.00;;;22.80;54.50;;;;;;6207110;23;20359;-79
2021/10/30 12:49:52;;;;;;;32.33;11.20;;;22.80;54.50;;;;;;6206898;23;20393;-79
2021/10/30 12:52:18;;;;;;;19.80;9.60;;;22.80;54.50;;;;;;6205701;23;20371;-79
2021/10/30 12:54:55;;;;;;;30.97;12.07;;;22.70;54.40;;;;;;6204461;23;20414;-79
2021/10/30 12:57:27;;;;;;;37.47;12.40;;;22.70;54.40;;;;;;6206750;23;20167;-80
2021/10/30 13:00:03;;;;;;;30.47;13.00;;;22.70;54.40;;;;;;6205511;23;20386;-79
2021/10/30 13:02:29;;;;;;;32.20;13.30;;;22.80;55.00;;;;;;6206815;23;20372;-79
2021/10/30 13:04:55;;;;;;;39.03;14.17;;;22.80;54.50;;;;;;6206454;23;20738;-79
2021/10/30 13:07:24;;;;;;;30.43;13.63;;;22.80;54.50;;;;;;6206624;23;20148;-79
2021/10/30 13:09:58;;;;;;;32.17;13.80;;;22.80;54.50;;;;;;6205979;23;20381;-79
2021/10/30 13:12:27;;;;;;;34.73;15.03;;;22.80;54.50;;;;;;6180270;23;20383;-79
2021/10/30 13:14:54;;;;;;;44.37;16.33;;;22.70;54.50;;;;;;6205559;23;20389;-79
2021/10/30 13:17:20;;;;;;;33.07;15.30;;;22.70;54.50;;;;;;6206146;23;20419;-79
2021/10/30 13:19:46;;;;;;;32.53;13.73;;;22.70;54.50;;;;;;6205578;23;20384;-79
2021/10/30 13:22:12;;;;;;;39.37;16.20;;;22.70;54.50;;;;;;6204787;23;20716;-79
2021/10/30 13:24:42;;;;;;;31.63;15.80;;;22.70;54.50;;;;;;6204844;23;20379;-79
2021/10/30 13:27:09;;;;;;;33.27;15.93;;;22.70;54.50;;;;;;6205281;23;20148;-78